JBU111 KTUS-KICT
Flight info
| Callsign | JBU111 |
|---|---|
| Flight time | 1h 45m |
| Altitude | 39000 |
| Route | WLDKT4 SSO J104 ONM DHT ICT |
| Aircraft | A20N/M-SDE2E3FGHIRWXY/LB1 |
Departure
| Time | 2026-04-26 05:21 |
|---|---|
| Airport | Tucson International Airport (KTUS) |
Arrival
| Time | 2026-04-26 07:07 |
|---|---|
| Airport | Wichita Dwight D. Eisenhower National Airport (KICT) |
| Time | Latitude | Longitude | Altitude | Speed | Heading |
|---|---|---|---|---|---|
| 2026-04-26 05:00 | 32.11885 | -110.93769 | 2606 ft | 0 kts | 62° |
| 2026-04-26 05:09 | 32.11881 | -110.93779 | 2606 ft | 2 kts | 62° |
| 2026-04-26 05:09 | 32.11874 | -110.93795 | 2606 ft | 2 kts | 72° |
| 2026-04-26 05:09 | 32.11870 | -110.93813 | 2606 ft | 2 kts | 82° |
| 2026-04-26 05:10 | 32.11869 | -110.93830 | 2605 ft | 2 kts | 94° |
| 2026-04-26 05:10 | 32.11872 | -110.93848 | 2605 ft | 2 kts | 105° |
| 2026-04-26 05:10 | 32.11876 | -110.93861 | 2605 ft | 2 kts | 114° |
| 2026-04-26 05:10 | 32.11880 | -110.93871 | 2605 ft | 2 kts | 121° |
| 2026-04-26 05:11 | 32.11889 | -110.93886 | 2605 ft | 1 kts | 132° |
| 2026-04-26 05:11 | 32.11892 | -110.93890 | 2605 ft | 0 kts | 135° |
| 2026-04-26 05:11 | 32.11869 | -110.93862 | 2605 ft | 6 kts | 135° |
| 2026-04-26 05:11 | 32.11847 | -110.93837 | 2606 ft | 1 kts | 135° |
| 2026-04-26 05:12 | 32.11846 | -110.93835 | 2606 ft | 0 kts | 135° |
| 2026-04-26 05:14 | 32.11842 | -110.93831 | 2606 ft | 2 kts | 135° |
| 2026-04-26 05:14 | 32.11822 | -110.93807 | 2607 ft | 5 kts | 135° |
| 2026-04-26 05:15 | 32.11793 | -110.93790 | 2608 ft | 4 kts | 172° |
| 2026-04-26 05:15 | 32.11760 | -110.93803 | 2608 ft | 7 kts | 219° |
| 2026-04-26 05:15 | 32.11704 | -110.93805 | 2609 ft | 10 kts | 141° |
| 2026-04-26 05:15 | 32.11646 | -110.93737 | 2612 ft | 11 kts | 135° |
| 2026-04-26 05:16 | 32.11587 | -110.93668 | 2614 ft | 12 kts | 135° |
| 2026-04-26 05:16 | 32.11524 | -110.93595 | 2617 ft | 13 kts | 136° |
| 2026-04-26 05:16 | 32.11459 | -110.93518 | 2619 ft | 14 kts | 135° |
| 2026-04-26 05:16 | 32.11385 | -110.93430 | 2620 ft | 16 kts | 135° |
| 2026-04-26 05:17 | 32.11300 | -110.93332 | 2623 ft | 17 kts | 135° |
| 2026-04-26 05:17 | 32.11213 | -110.93230 | 2625 ft | 18 kts | 135° |
| 2026-04-26 05:17 | 32.11120 | -110.93121 | 2627 ft | 19 kts | 135° |
| 2026-04-26 05:17 | 32.11023 | -110.93005 | 2631 ft | 19 kts | 135° |
| 2026-04-26 05:18 | 32.10924 | -110.92890 | 2634 ft | 20 kts | 135° |
| 2026-04-26 05:18 | 32.10825 | -110.92775 | 2638 ft | 19 kts | 135° |
| 2026-04-26 05:18 | 32.10735 | -110.92669 | 2642 ft | 17 kts | 135° |
| 2026-04-26 05:18 | 32.10640 | -110.92557 | 2646 ft | 21 kts | 135° |
| 2026-04-26 05:19 | 32.10540 | -110.92439 | 2649 ft | 19 kts | 136° |
| 2026-04-26 05:19 | 32.10446 | -110.92329 | 2652 ft | 17 kts | 135° |
| 2026-04-26 05:19 | 32.10365 | -110.92233 | 2655 ft | 15 kts | 135° |
| 2026-04-26 05:19 | 32.10284 | -110.92200 | 2657 ft | 13 kts | 219° |
| 2026-04-26 05:20 | 32.10215 | -110.92285 | 2655 ft | 8 kts | 243° |
| 2026-04-26 05:20 | 32.10247 | -110.92339 | 2653 ft | 12 kts | 315° |
| 2026-04-26 05:20 | 32.10477 | -110.92608 | 2644 ft | 82 kts | 315° |
| 2026-04-26 05:20 | 32.11041 | -110.93269 | 2627 ft | 142 kts | 315° |
| 2026-04-26 05:21 | 32.11856 | -110.94219 | 2692 ft | 181 kts | 312° |
| 2026-04-26 05:21 | 32.12767 | -110.95285 | 3152 ft | 187 kts | 312° |
| 2026-04-26 05:21 | 32.13679 | -110.96371 | 3746 ft | 190 kts | 310° |
| 2026-04-26 05:21 | 32.14595 | -110.97485 | 4411 ft | 190 kts | 309° |
| 2026-04-26 05:22 | 32.15561 | -110.98593 | 4821 ft | 200 kts | 310° |
| 2026-04-26 05:22 | 32.16608 | -110.99752 | 5129 ft | 216 kts | 311° |
| 2026-04-26 05:22 | 32.17776 | -111.01023 | 5366 ft | 239 kts | 311° |
| 2026-04-26 05:22 | 32.19052 | -111.02392 | 5722 ft | 257 kts | 312° |
| 2026-04-26 05:23 | 32.20432 | -111.03867 | 6205 ft | 272 kts | 314° |
| 2026-04-26 05:23 | 32.22206 | -111.04951 | 6634 ft | 301 kts | 347° |
| 2026-04-26 05:23 | 32.24295 | -111.04710 | 7425 ft | 310 kts | 21° |
| 2026-04-26 05:23 | 32.26104 | -111.03304 | 8110 ft | 319 kts | 40° |
| 2026-04-26 05:24 | 32.27754 | -111.01532 | 8873 ft | 323 kts | 43° |
| 2026-04-26 05:24 | 32.29327 | -110.99680 | 9729 ft | 324 kts | 51° |
| 2026-04-26 05:24 | 32.30383 | -110.97356 | 10511 ft | 326 kts | 76° |
| 2026-04-26 05:24 | 32.30721 | -110.94673 | 11029 ft | 337 kts | 89° |
| 2026-04-26 05:25 | 32.30853 | -110.91880 | 11643 ft | 347 kts | 90° |
| 2026-04-26 05:25 | 32.30983 | -110.89034 | 12369 ft | 353 kts | 89° |
| 2026-04-26 05:25 | 32.31141 | -110.86131 | 13141 ft | 357 kts | 89° |
| 2026-04-26 05:25 | 32.31324 | -110.83186 | 13864 ft | 363 kts | 88° |
| 2026-04-26 05:26 | 32.31526 | -110.80170 | 14544 ft | 370 kts | 88° |
| 2026-04-26 05:26 | 32.31738 | -110.77113 | 15228 ft | 376 kts | 88° |
| 2026-04-26 05:26 | 32.31955 | -110.74046 | 15928 ft | 382 kts | 88° |
| 2026-04-26 05:26 | 32.32180 | -110.70878 | 16586 ft | 387 kts | 88° |
| 2026-04-26 05:27 | 32.32401 | -110.67712 | 17251 ft | 392 kts | 88° |
| 2026-04-26 05:27 | 32.32623 | -110.64484 | 17898 ft | 398 kts | 88° |
| 2026-04-26 05:27 | 32.32849 | -110.61196 | 18501 ft | 403 kts | 88° |
| 2026-04-26 05:27 | 32.32984 | -110.57893 | 19128 ft | 406 kts | 93° |
| 2026-04-26 05:28 | 32.32912 | -110.54524 | 19752 ft | 408 kts | 96° |
| 2026-04-26 05:28 | 32.32763 | -110.51184 | 20336 ft | 413 kts | 97° |
| 2026-04-26 05:28 | 32.32600 | -110.47767 | 20913 ft | 417 kts | 97° |
| 2026-04-26 05:28 | 32.32439 | -110.44325 | 21510 ft | 421 kts | 97° |
| 2026-04-26 05:29 | 32.32278 | -110.40832 | 22069 ft | 425 kts | 97° |
| 2026-04-26 05:29 | 32.32124 | -110.37334 | 22609 ft | 430 kts | 97° |
| 2026-04-26 05:29 | 32.31968 | -110.33828 | 23161 ft | 433 kts | 97° |
| 2026-04-26 05:29 | 32.31811 | -110.30254 | 23691 ft | 437 kts | 97° |
| 2026-04-26 05:30 | 32.31653 | -110.26664 | 24221 ft | 441 kts | 97° |
| 2026-04-26 05:30 | 32.31494 | -110.23056 | 24718 ft | 445 kts | 97° |
| 2026-04-26 05:30 | 32.31330 | -110.19392 | 25180 ft | 449 kts | 97° |
| 2026-04-26 05:30 | 32.31166 | -110.15724 | 25629 ft | 453 kts | 98° |
| 2026-04-26 05:31 | 32.30997 | -110.11969 | 26091 ft | 457 kts | 97° |
| 2026-04-26 05:31 | 32.30828 | -110.08235 | 26551 ft | 460 kts | 98° |
| 2026-04-26 05:31 | 32.30655 | -110.04483 | 27003 ft | 463 kts | 98° |
| 2026-04-26 05:31 | 32.30481 | -110.00677 | 27415 ft | 467 kts | 97° |
| 2026-04-26 05:32 | 32.30303 | -109.96824 | 27819 ft | 471 kts | 98° |
| 2026-04-26 05:32 | 32.30123 | -109.92958 | 28224 ft | 474 kts | 97° |
| 2026-04-26 05:32 | 32.29941 | -109.89058 | 28616 ft | 478 kts | 98° |
| 2026-04-26 05:32 | 32.29758 | -109.85129 | 29020 ft | 481 kts | 98° |
| 2026-04-26 05:33 | 32.29572 | -109.81215 | 29398 ft | 484 kts | 98° |
| 2026-04-26 05:33 | 32.29383 | -109.77242 | 29775 ft | 487 kts | 98° |
| 2026-04-26 05:33 | 32.29192 | -109.73254 | 30139 ft | 490 kts | 98° |
| 2026-04-26 05:33 | 32.28999 | -109.69254 | 30496 ft | 493 kts | 98° |
| 2026-04-26 05:34 | 32.28804 | -109.65209 | 30837 ft | 496 kts | 98° |
| 2026-04-26 05:34 | 32.28608 | -109.61142 | 31172 ft | 498 kts | 98° |
| 2026-04-26 05:34 | 32.28408 | -109.57053 | 31487 ft | 501 kts | 98° |
| 2026-04-26 05:34 | 32.28205 | -109.52898 | 31775 ft | 505 kts | 98° |
| 2026-04-26 05:35 | 32.28005 | -109.48762 | 32092 ft | 507 kts | 98° |
| 2026-04-26 05:35 | 32.27801 | -109.44624 | 32392 ft | 510 kts | 98° |
| 2026-04-26 05:35 | 32.27595 | -109.40466 | 32669 ft | 512 kts | 98° |
| 2026-04-26 05:35 | 32.27411 | -109.36227 | 32920 ft | 518 kts | 95° |
| 2026-04-26 05:36 | 32.27654 | -109.32005 | 33261 ft | 522 kts | 83° |
| 2026-04-26 05:36 | 32.28496 | -109.27864 | 33950 ft | 515 kts | 72° |
| 2026-04-26 05:36 | 32.29881 | -109.24030 | 34508 ft | 508 kts | 60° |
| 2026-04-26 05:36 | 32.31766 | -109.20545 | 34814 ft | 503 kts | 48° |
| 2026-04-26 05:37 | 32.34095 | -109.17493 | 35090 ft | 497 kts | 38° |
| 2026-04-26 05:37 | 32.36622 | -109.14703 | 35375 ft | 495 kts | 36° |
| 2026-04-26 05:37 | 32.39149 | -109.11989 | 35643 ft | 496 kts | 36° |
| 2026-04-26 05:37 | 32.41692 | -109.09216 | 35909 ft | 496 kts | 37° |
| 2026-04-26 05:38 | 32.44185 | -109.06441 | 36095 ft | 499 kts | 37° |
| 2026-04-26 05:38 | 32.46692 | -109.03597 | 36294 ft | 501 kts | 37° |
| 2026-04-26 05:38 | 32.49210 | -109.00723 | 36513 ft | 502 kts | 37° |
| 2026-04-26 05:38 | 32.51716 | -108.97851 | 36694 ft | 504 kts | 37° |
| 2026-04-26 05:39 | 32.54227 | -108.94965 | 36874 ft | 505 kts | 37° |
| 2026-04-26 05:39 | 32.56754 | -108.92069 | 37032 ft | 507 kts | 38° |
| 2026-04-26 05:39 | 32.61827 | -108.86214 | 37055 ft | 508 kts | 38° |
| 2026-04-26 05:40 | 32.66862 | -108.80376 | 37067 ft | 507 kts | 38° |
| 2026-04-26 05:40 | 32.71899 | -108.74549 | 37072 ft | 507 kts | 38° |
| 2026-04-26 05:41 | 32.76915 | -108.68742 | 37078 ft | 506 kts | 37° |
| 2026-04-26 05:41 | 32.81948 | -108.62908 | 37089 ft | 505 kts | 38° |
| 2026-04-26 05:42 | 32.86964 | -108.57090 | 37097 ft | 505 kts | 38° |
| 2026-04-26 05:42 | 32.91976 | -108.51260 | 37105 ft | 505 kts | 38° |
| 2026-04-26 05:43 | 32.96976 | -108.45438 | 37108 ft | 504 kts | 38° |
| 2026-04-26 05:43 | 33.01994 | -108.39587 | 37121 ft | 504 kts | 38° |
| 2026-04-26 05:44 | 33.07001 | -108.33741 | 37125 ft | 503 kts | 38° |
| 2026-04-26 05:44 | 33.11982 | -108.27922 | 37131 ft | 505 kts | 38° |
| 2026-04-26 05:45 | 33.16993 | -108.22056 | 37143 ft | 504 kts | 38° |
| 2026-04-26 05:45 | 33.21987 | -108.16194 | 37138 ft | 503 kts | 38° |
| 2026-04-26 05:46 | 33.26940 | -108.10364 | 37148 ft | 503 kts | 39° |
| 2026-04-26 05:46 | 33.31913 | -108.04494 | 37146 ft | 502 kts | 39° |
| 2026-04-26 05:47 | 33.36872 | -107.98604 | 37159 ft | 501 kts | 38° |
| 2026-04-26 05:47 | 33.41811 | -107.92744 | 37160 ft | 501 kts | 39° |
| 2026-04-26 05:48 | 33.46730 | -107.86911 | 37153 ft | 502 kts | 39° |
| 2026-04-26 05:48 | 33.51687 | -107.81023 | 37152 ft | 502 kts | 39° |
| 2026-04-26 05:49 | 33.59128 | -107.72164 | 37148 ft | 502 kts | 38° |
| 2026-04-26 05:50 | 33.64040 | -107.66312 | 37148 ft | 502 kts | 38° |
| 2026-04-26 05:50 | 33.68999 | -107.60394 | 37149 ft | 501 kts | 39° |
| 2026-04-26 05:51 | 33.73922 | -107.54504 | 37149 ft | 501 kts | 39° |
| 2026-04-26 05:51 | 33.78835 | -107.48612 | 37149 ft | 501 kts | 39° |
| 2026-04-26 05:52 | 33.83729 | -107.42734 | 37130 ft | 499 kts | 38° |
| 2026-04-26 05:52 | 33.88660 | -107.36808 | 37131 ft | 499 kts | 38° |
| 2026-04-26 05:53 | 33.93558 | -107.30911 | 37114 ft | 499 kts | 39° |
| 2026-04-26 05:53 | 33.98422 | -107.25044 | 37127 ft | 499 kts | 39° |
| 2026-04-26 05:54 | 34.03328 | -107.19115 | 37119 ft | 500 kts | 40° |
| 2026-04-26 05:54 | 34.08221 | -107.13192 | 37097 ft | 499 kts | 39° |
| 2026-04-26 05:55 | 34.13102 | -107.07270 | 37071 ft | 497 kts | 39° |
| 2026-04-26 05:55 | 34.17961 | -107.01383 | 37056 ft | 499 kts | 39° |
| 2026-04-26 05:56 | 34.22836 | -106.95455 | 37054 ft | 497 kts | 39° |
| 2026-04-26 05:56 | 34.27714 | -106.89519 | 37050 ft | 496 kts | 39° |
| 2026-04-26 05:57 | 34.32368 | -106.83367 | 37041 ft | 501 kts | 47° |
| 2026-04-26 05:57 | 34.36321 | -106.76405 | 37038 ft | 506 kts | 57° |
| 2026-04-26 05:58 | 34.39621 | -106.68899 | 37033 ft | 508 kts | 60° |
| 2026-04-26 05:58 | 34.42840 | -106.61321 | 37040 ft | 508 kts | 60° |
| 2026-04-26 05:59 | 34.46094 | -106.53757 | 37045 ft | 508 kts | 60° |
| 2026-04-26 05:59 | 34.49353 | -106.46201 | 37042 ft | 508 kts | 59° |
| 2026-04-26 06:00 | 34.52611 | -106.38650 | 37052 ft | 508 kts | 59° |
| 2026-04-26 06:00 | 34.55892 | -106.31037 | 37053 ft | 508 kts | 60° |
| 2026-04-26 06:01 | 34.59139 | -106.23470 | 37052 ft | 508 kts | 60° |
| 2026-04-26 06:01 | 34.62389 | -106.15897 | 37061 ft | 509 kts | 60° |
| 2026-04-26 06:02 | 34.65645 | -106.08284 | 37061 ft | 508 kts | 60° |
| 2026-04-26 06:02 | 34.68887 | -106.00687 | 37074 ft | 508 kts | 60° |
| 2026-04-26 06:03 | 34.72117 | -105.93105 | 37076 ft | 509 kts | 60° |
| 2026-04-26 06:03 | 34.75361 | -105.85465 | 37074 ft | 508 kts | 60° |
| 2026-04-26 06:04 | 34.78587 | -105.77867 | 37071 ft | 507 kts | 60° |
| 2026-04-26 06:04 | 34.81779 | -105.70310 | 37068 ft | 507 kts | 60° |
| 2026-04-26 06:05 | 34.84999 | -105.62681 | 37076 ft | 506 kts | 60° |
| 2026-04-26 06:05 | 34.88193 | -105.55095 | 37064 ft | 504 kts | 60° |
| 2026-04-26 06:06 | 34.91371 | -105.47543 | 37067 ft | 504 kts | 60° |
| 2026-04-26 06:06 | 34.94548 | -105.39959 | 37054 ft | 503 kts | 60° |
| 2026-04-26 06:07 | 34.97719 | -105.32378 | 37043 ft | 501 kts | 61° |
| 2026-04-26 06:07 | 35.00866 | -105.24842 | 37035 ft | 501 kts | 60° |
| 2026-04-26 06:08 | 35.04001 | -105.17313 | 37033 ft | 500 kts | 61° |
| 2026-04-26 06:08 | 35.07139 | -105.09766 | 37028 ft | 500 kts | 60° |
| 2026-04-26 06:09 | 35.10266 | -105.02212 | 37024 ft | 499 kts | 61° |
| 2026-04-26 06:09 | 35.13377 | -104.94692 | 37016 ft | 498 kts | 60° |
| 2026-04-26 06:10 | 35.16499 | -104.87122 | 37013 ft | 498 kts | 60° |
| 2026-04-26 06:10 | 35.19608 | -104.79563 | 37013 ft | 499 kts | 61° |
| 2026-04-26 06:11 | 35.22705 | -104.72025 | 37012 ft | 499 kts | 60° |
| 2026-04-26 06:11 | 35.25810 | -104.64447 | 37013 ft | 499 kts | 60° |
| 2026-04-26 06:12 | 35.28895 | -104.56898 | 37009 ft | 499 kts | 60° |
| 2026-04-26 06:12 | 35.31978 | -104.49342 | 37003 ft | 500 kts | 60° |
| 2026-04-26 06:13 | 35.35075 | -104.41739 | 36997 ft | 501 kts | 60° |
| 2026-04-26 06:13 | 35.38186 | -104.34068 | 36987 ft | 501 kts | 61° |
| 2026-04-26 06:14 | 35.41267 | -104.26471 | 36974 ft | 502 kts | 61° |
| 2026-04-26 06:14 | 35.44349 | -104.18845 | 36972 ft | 501 kts | 61° |
| 2026-04-26 06:15 | 35.47441 | -104.11175 | 36973 ft | 501 kts | 61° |
| 2026-04-26 06:15 | 35.50505 | -104.03564 | 36970 ft | 502 kts | 61° |
| 2026-04-26 06:16 | 35.53578 | -103.95900 | 36973 ft | 501 kts | 61° |
| 2026-04-26 06:16 | 35.56645 | -103.88248 | 36976 ft | 501 kts | 61° |
| 2026-04-26 06:17 | 35.59701 | -103.80593 | 36977 ft | 500 kts | 61° |
| 2026-04-26 06:17 | 35.62752 | -103.72945 | 36978 ft | 500 kts | 60° |
| 2026-04-26 06:18 | 35.65785 | -103.65317 | 36977 ft | 500 kts | 60° |
| 2026-04-26 06:18 | 35.68822 | -103.57665 | 36976 ft | 500 kts | 61° |
| 2026-04-26 06:19 | 35.71869 | -103.49957 | 36976 ft | 500 kts | 61° |
| 2026-04-26 06:19 | 35.74895 | -103.42304 | 36975 ft | 499 kts | 61° |
| 2026-04-26 06:20 | 35.77920 | -103.34621 | 36977 ft | 499 kts | 61° |
| 2026-04-26 06:20 | 35.80927 | -103.26968 | 36975 ft | 499 kts | 61° |
| 2026-04-26 06:21 | 35.83940 | -103.19290 | 36969 ft | 499 kts | 61° |
| 2026-04-26 06:21 | 35.86941 | -103.11616 | 36959 ft | 498 kts | 61° |
| 2026-04-26 06:22 | 35.89943 | -103.03928 | 36952 ft | 499 kts | 61° |
| 2026-04-26 06:22 | 35.92922 | -102.96275 | 36948 ft | 499 kts | 61° |
| 2026-04-26 06:23 | 35.95916 | -102.88566 | 36948 ft | 498 kts | 61° |
| 2026-04-26 06:23 | 35.98891 | -102.80895 | 36949 ft | 497 kts | 61° |
| 2026-04-26 06:24 | 36.01872 | -102.73200 | 36942 ft | 496 kts | 61° |
| 2026-04-26 06:24 | 36.04839 | -102.65525 | 36931 ft | 496 kts | 61° |
| 2026-04-26 06:25 | 36.07786 | -102.57880 | 36919 ft | 494 kts | 60° |
| 2026-04-26 06:25 | 36.10677 | -102.50190 | 36919 ft | 494 kts | 63° |
| 2026-04-26 06:26 | 36.13428 | -102.42454 | 36921 ft | 494 kts | 63° |
| 2026-04-26 06:26 | 36.16190 | -102.34697 | 36923 ft | 493 kts | 63° |
| 2026-04-26 06:27 | 36.18945 | -102.27010 | 36918 ft | 493 kts | 63° |
| 2026-04-26 06:27 | 36.21711 | -102.19275 | 36914 ft | 492 kts | 63° |
| 2026-04-26 06:28 | 36.24481 | -102.11525 | 36909 ft | 491 kts | 63° |
| 2026-04-26 06:28 | 36.27222 | -102.03825 | 36906 ft | 491 kts | 63° |
| 2026-04-26 06:29 | 36.29968 | -101.96097 | 36898 ft | 491 kts | 63° |
| 2026-04-26 06:29 | 36.32687 | -101.88425 | 36897 ft | 490 kts | 63° |
| 2026-04-26 06:30 | 36.35423 | -101.80692 | 36899 ft | 489 kts | 63° |
| 2026-04-26 06:30 | 36.38139 | -101.72994 | 36896 ft | 489 kts | 63° |
| 2026-04-26 06:31 | 36.40856 | -101.65274 | 36895 ft | 489 kts | 63° |
| 2026-04-26 06:31 | 36.43547 | -101.57598 | 36890 ft | 488 kts | 63° |
| 2026-04-26 06:32 | 36.46258 | -101.49857 | 36875 ft | 488 kts | 63° |
| 2026-04-26 06:32 | 36.48955 | -101.42133 | 36873 ft | 488 kts | 63° |
| 2026-04-26 06:33 | 36.51630 | -101.34450 | 36874 ft | 487 kts | 63° |
| 2026-04-26 06:33 | 36.54324 | -101.26702 | 36874 ft | 488 kts | 63° |
| 2026-04-26 06:34 | 36.56995 | -101.18988 | 36871 ft | 487 kts | 63° |
| 2026-04-26 06:34 | 36.59659 | -101.11279 | 36866 ft | 487 kts | 64° |
| 2026-04-26 06:35 | 36.62319 | -101.03563 | 36868 ft | 486 kts | 63° |
| 2026-04-26 06:35 | 36.64968 | -100.95869 | 36869 ft | 486 kts | 63° |
| 2026-04-26 06:36 | 36.67614 | -100.88148 | 36877 ft | 486 kts | 63° |
| 2026-04-26 06:36 | 36.70259 | -100.80421 | 36874 ft | 485 kts | 64° |
| 2026-04-26 06:37 | 36.72890 | -100.72705 | 36871 ft | 486 kts | 63° |
| 2026-04-26 06:37 | 36.75523 | -100.64968 | 36870 ft | 486 kts | 63° |
| 2026-04-26 06:38 | 36.78142 | -100.57252 | 36875 ft | 485 kts | 64° |
| 2026-04-26 06:38 | 36.80753 | -100.49536 | 36867 ft | 484 kts | 63° |
| 2026-04-26 06:39 | 36.83357 | -100.41830 | 36870 ft | 484 kts | 63° |
| 2026-04-26 06:39 | 36.85952 | -100.34126 | 36868 ft | 483 kts | 64° |
| 2026-04-26 06:40 | 36.88546 | -100.26408 | 36863 ft | 483 kts | 64° |
| 2026-04-26 06:40 | 36.91137 | -100.18675 | 36864 ft | 483 kts | 64° |
| 2026-04-26 06:41 | 36.93722 | -100.10931 | 36859 ft | 483 kts | 64° |
| 2026-04-26 06:41 | 36.96294 | -100.03221 | 36856 ft | 482 kts | 64° |
| 2026-04-26 06:42 | 36.98853 | -99.95523 | 36860 ft | 482 kts | 64° |
| 2026-04-26 06:42 | 37.01416 | -99.87798 | 36865 ft | 482 kts | 64° |
| 2026-04-26 06:43 | 37.03957 | -99.80112 | 36859 ft | 481 kts | 64° |
| 2026-04-26 06:43 | 37.06509 | -99.72370 | 36859 ft | 480 kts | 64° |
| 2026-04-26 06:43 | 37.07772 | -99.68540 | 36612 ft | 480 kts | 64° |
| 2026-04-26 06:44 | 37.09042 | -99.64678 | 35742 ft | 487 kts | 64° |
| 2026-04-26 06:44 | 37.10326 | -99.60777 | 34894 ft | 492 kts | 64° |
| 2026-04-26 06:44 | 37.11622 | -99.56825 | 34256 ft | 492 kts | 65° |
| 2026-04-26 06:44 | 37.12915 | -99.52872 | 33706 ft | 489 kts | 65° |
| 2026-04-26 06:45 | 37.14190 | -99.48962 | 33117 ft | 488 kts | 65° |
| 2026-04-26 06:45 | 37.15479 | -99.45016 | 32476 ft | 488 kts | 65° |
| 2026-04-26 06:45 | 37.16746 | -99.41132 | 31836 ft | 487 kts | 65° |
| 2026-04-26 06:45 | 37.18036 | -99.37174 | 31173 ft | 487 kts | 65° |
| 2026-04-26 06:46 | 37.19299 | -99.33287 | 30504 ft | 486 kts | 66° |
| 2026-04-26 06:46 | 37.20563 | -99.29398 | 29817 ft | 486 kts | 66° |
| 2026-04-26 06:46 | 37.21832 | -99.25481 | 29188 ft | 482 kts | 66° |
| 2026-04-26 06:46 | 37.23087 | -99.21606 | 28665 ft | 477 kts | 66° |
| 2026-04-26 06:47 | 37.24320 | -99.17789 | 28179 ft | 471 kts | 66° |
| 2026-04-26 06:47 | 37.25538 | -99.14017 | 27729 ft | 465 kts | 66° |
| 2026-04-26 06:47 | 37.26728 | -99.10326 | 27274 ft | 459 kts | 66° |
| 2026-04-26 06:47 | 37.27925 | -99.06620 | 26803 ft | 454 kts | 66° |
| 2026-04-26 06:48 | 37.29084 | -99.03022 | 26343 ft | 449 kts | 66° |
| 2026-04-26 06:48 | 37.30254 | -98.99385 | 25886 ft | 444 kts | 66° |
| 2026-04-26 06:48 | 37.31397 | -98.95828 | 25439 ft | 440 kts | 66° |
| 2026-04-26 06:48 | 37.32528 | -98.92306 | 24987 ft | 436 kts | 66° |
| 2026-04-26 06:49 | 37.33651 | -98.88801 | 24546 ft | 432 kts | 66° |
| 2026-04-26 06:49 | 37.34761 | -98.85334 | 24099 ft | 428 kts | 66° |
| 2026-04-26 06:49 | 37.35874 | -98.81857 | 23634 ft | 425 kts | 66° |
| 2026-04-26 06:49 | 37.36961 | -98.78455 | 23199 ft | 422 kts | 67° |
| 2026-04-26 06:50 | 37.38040 | -98.75073 | 22776 ft | 418 kts | 67° |
| 2026-04-26 06:50 | 37.39113 | -98.71703 | 22338 ft | 416 kts | 67° |
| 2026-04-26 06:50 | 37.40179 | -98.68353 | 21904 ft | 413 kts | 67° |
| 2026-04-26 06:50 | 37.41246 | -98.64994 | 21483 ft | 410 kts | 67° |
| 2026-04-26 06:51 | 37.42289 | -98.61711 | 21042 ft | 407 kts | 67° |
| 2026-04-26 06:51 | 37.44359 | -98.55174 | 20192 ft | 400 kts | 67° |
| 2026-04-26 06:51 | 37.45385 | -98.51931 | 19767 ft | 397 kts | 67° |
| 2026-04-26 06:52 | 37.46399 | -98.48724 | 19354 ft | 394 kts | 67° |
| 2026-04-26 06:52 | 37.47396 | -98.45566 | 18940 ft | 391 kts | 68° |
| 2026-04-26 06:52 | 37.48396 | -98.42394 | 18514 ft | 387 kts | 68° |
| 2026-04-26 06:52 | 37.49380 | -98.39271 | 18093 ft | 385 kts | 68° |
| 2026-04-26 06:53 | 37.50356 | -98.36166 | 17667 ft | 382 kts | 68° |
| 2026-04-26 06:53 | 37.51331 | -98.33061 | 17219 ft | 379 kts | 68° |
| 2026-04-26 06:53 | 37.52290 | -98.30004 | 16782 ft | 377 kts | 68° |
| 2026-04-26 06:53 | 37.53239 | -98.26976 | 16332 ft | 374 kts | 68° |
| 2026-04-26 06:54 | 37.54190 | -98.23937 | 15872 ft | 373 kts | 68° |
| 2026-04-26 06:54 | 37.55139 | -98.20905 | 15419 ft | 371 kts | 68° |
| 2026-04-26 06:54 | 37.56074 | -98.17917 | 14993 ft | 369 kts | 68° |
| 2026-04-26 06:54 | 37.57015 | -98.14904 | 14542 ft | 367 kts | 67° |
| 2026-04-26 06:55 | 37.57931 | -98.11968 | 14100 ft | 364 kts | 67° |
| 2026-04-26 06:55 | 37.58861 | -98.08984 | 13670 ft | 362 kts | 67° |
| 2026-04-26 06:55 | 37.59770 | -98.06068 | 13241 ft | 360 kts | 67° |
| 2026-04-26 06:55 | 37.60680 | -98.03145 | 12816 ft | 358 kts | 67° |
| 2026-04-26 06:56 | 37.61580 | -98.00249 | 12413 ft | 355 kts | 67° |
| 2026-04-26 06:56 | 37.62485 | -97.97334 | 12004 ft | 352 kts | 67° |
| 2026-04-26 06:56 | 37.63361 | -97.94510 | 11601 ft | 350 kts | 67° |
| 2026-04-26 06:56 | 37.64243 | -97.91663 | 11201 ft | 347 kts | 67° |
| 2026-04-26 06:57 | 37.65119 | -97.88835 | 10806 ft | 344 kts | 67° |
| 2026-04-26 06:57 | 37.65980 | -97.86053 | 10405 ft | 342 kts | 67° |
| 2026-04-26 06:57 | 37.66843 | -97.83266 | 10018 ft | 338 kts | 67° |
| 2026-04-26 06:57 | 37.67674 | -97.80573 | 9888 ft | 326 kts | 67° |
| 2026-04-26 06:58 | 37.68481 | -97.77956 | 9606 ft | 319 kts | 67° |
| 2026-04-26 06:58 | 37.69281 | -97.75365 | 9244 ft | 316 kts | 67° |
| 2026-04-26 06:58 | 37.70075 | -97.72791 | 8963 ft | 310 kts | 67° |
| 2026-04-26 06:58 | 37.70845 | -97.70296 | 8612 ft | 307 kts | 68° |
| 2026-04-26 06:59 | 37.71617 | -97.67791 | 8229 ft | 304 kts | 68° |
| 2026-04-26 06:59 | 37.72371 | -97.65334 | 7954 ft | 297 kts | 68° |
| 2026-04-26 06:59 | 37.73112 | -97.62914 | 7603 ft | 294 kts | 68° |
| 2026-04-26 06:59 | 37.73841 | -97.60533 | 7256 ft | 291 kts | 68° |
| 2026-04-26 07:00 | 37.74591 | -97.58175 | 6917 ft | 286 kts | 65° |
| 2026-04-26 07:00 | 37.75428 | -97.55943 | 6598 ft | 281 kts | 63° |
| 2026-04-26 07:00 | 37.76266 | -97.53792 | 6293 ft | 269 kts | 63° |
| 2026-04-26 07:00 | 37.77085 | -97.51708 | 5982 ft | 259 kts | 63° |
| 2026-04-26 07:01 | 37.77871 | -97.49699 | 5682 ft | 251 kts | 64° |
| 2026-04-26 07:01 | 37.78626 | -97.47765 | 5375 ft | 245 kts | 64° |
| 2026-04-26 07:01 | 37.79372 | -97.45849 | 5076 ft | 238 kts | 64° |
| 2026-04-26 07:01 | 37.80090 | -97.44002 | 4789 ft | 236 kts | 64° |
| 2026-04-26 07:02 | 37.80808 | -97.42151 | 4499 ft | 233 kts | 64° |
| 2026-04-26 07:02 | 37.81515 | -97.40329 | 4209 ft | 226 kts | 65° |
| 2026-04-26 07:02 | 37.82142 | -97.38570 | 3919 ft | 218 kts | 76° |
| 2026-04-26 07:02 | 37.82188 | -97.36733 | 3646 ft | 207 kts | 108° |
| 2026-04-26 07:03 | 37.81404 | -97.35299 | 3589 ft | 195 kts | 144° |
| 2026-04-26 07:03 | 37.80118 | -97.34806 | 3592 ft | 200 kts | 182° |
| 2026-04-26 07:03 | 37.78807 | -97.35390 | 3605 ft | 205 kts | 212° |
| 2026-04-26 07:03 | 37.77662 | -97.36481 | 3603 ft | 206 kts | 218° |
| 2026-04-26 07:04 | 37.76559 | -97.37652 | 3490 ft | 205 kts | 218° |
| 2026-04-26 07:04 | 37.75465 | -97.38744 | 3312 ft | 196 kts | 211° |
| 2026-04-26 07:04 | 37.74322 | -97.39566 | 3027 ft | 185 kts | 202° |
| 2026-04-26 07:04 | 37.73183 | -97.40196 | 2788 ft | 171 kts | 198° |
| 2026-04-26 07:05 | 37.72102 | -97.40700 | 2545 ft | 160 kts | 197° |
| 2026-04-26 07:05 | 37.71078 | -97.41152 | 2327 ft | 150 kts | 197° |
| 2026-04-26 07:05 | 37.70103 | -97.41588 | 2148 ft | 149 kts | 197° |
| 2026-04-26 07:05 | 37.69127 | -97.42032 | 1966 ft | 149 kts | 198° |
| 2026-04-26 07:06 | 37.68161 | -97.42477 | 1769 ft | 148 kts | 198° |
| 2026-04-26 07:06 | 37.67185 | -97.42923 | 1558 ft | 147 kts | 198° |
| 2026-04-26 07:06 | 37.66225 | -97.43359 | 1378 ft | 146 kts | 198° |
| 2026-04-26 07:06 | 37.65331 | -97.43762 | 1332 ft | 116 kts | 201° |
| 2026-04-26 07:07 | 37.64729 | -97.44038 | 1323 ft | 74 kts | 200° |
| 2026-04-26 07:07 | 37.64527 | -97.44098 | 1319 ft | 14 kts | 137° |
| 2026-04-26 07:07 | 37.64524 | -97.43990 | 1319 ft | 13 kts | 31° |
| 2026-04-26 07:07 | 37.64606 | -97.43950 | 1320 ft | 12 kts | 21° |
| 2026-04-26 07:08 | 37.64690 | -97.43911 | 1322 ft | 14 kts | 20° |
| 2026-04-26 07:08 | 37.64794 | -97.43863 | 1324 ft | 17 kts | 21° |
| 2026-04-26 07:08 | 37.64904 | -97.43813 | 1326 ft | 16 kts | 20° |
| 2026-04-26 07:08 | 37.65008 | -97.43765 | 1328 ft | 16 kts | 20° |
| 2026-04-26 07:09 | 37.65134 | -97.43707 | 1328 ft | 22 kts | 20° |
| 2026-04-26 07:09 | 37.65281 | -97.43641 | 1330 ft | 21 kts | 20° |
| 2026-04-26 07:09 | 37.65418 | -97.43577 | 1329 ft | 12 kts | 18° |
| 2026-04-26 07:09 | 37.65452 | -97.43508 | 1330 ft | 10 kts | 105° |
| 2026-04-26 07:10 | 37.65286 | -97.43268 | 1328 ft | 14 kts | 146° |
| 2026-04-26 07:11 | 37.65226 | -97.43156 | 1328 ft | 6 kts | 60° |
| 2026-04-26 07:11 | 37.65239 | -97.43126 | 1328 ft | 0 kts | 60° |
| 2026-04-26 07:11 | 37.65241 | -97.43123 | 1328 ft | 0 kts | 60° |